.
WxDataArchive / Data Records for 2010-09-03
2010-09-02 September 2010 2010-09-04

Data Records for Friday, 03 September 2010

Time	Temp	Chill	HIndex	Humid	Dewpt	 Wind 	HiWind	WindDir	Rain 	Barom 
-----	----	-----	------	-----	-----	------	------	-------	-----	----- 
00:00	74.6	74.6	74.6	73	65.4	1	3	248	0.00	29.757 
00:05	74.6	74.6	74.6	73	65.4	0	4	270	0.00	29.757 
00:10	74.6	74.6	74.6	73	65.4	0	2	270	0.00	29.757 
00:15	74.4	74.4	74.4	73	65.2	0	2	292	0.00	29.753 
00:20	74.4	74.4	74.4	73	65.2	0	2	270	0.00	29.753 
00:25	74.2	74.2	74.2	73	65.0	0	2	248	0.00	29.753 
00:30	74.2	74.2	74.2	73	65.0	0	2	248	0.00	29.754 
00:35	74.2	74.2	74.2	73	65.0	1	5	248	0.00	29.754 
00:40	74.0	74.0	74.0	73	64.8	0	3	248	0.00	29.754 
00:45	74.0	74.0	74.0	74	65.2	0	1	248	0.00	29.753 
00:50	74.0	74.0	74.0	74	65.2	0	2	292	0.00	29.753 
00:55	74.0	74.0	74.0	74	65.2	0	2	292	0.00	29.753 
01:00	74.0	74.0	74.0	74	65.2	0	4	90	0.00	29.752 
01:05	73.9	73.9	73.9	74	65.1	0	2	90	0.00	29.752 
01:10	74.0	74.0	74.0	74	65.2	0	3	90	0.00	29.752 
01:15	74.0	74.0	74.0	74	65.2	0	2	180	0.00	29.765 
01:20	74.0	74.0	74.0	75	65.6	0	2	270	0.00	29.765 
01:25	74.2	74.2	74.2	75	65.8	0	2	270	0.00	29.765 
01:30	74.2	74.2	74.2	74	65.4	0	3	270	0.00	29.768 
01:35	74.4	74.4	74.4	74	65.6	0	1	248	0.00	29.768 
01:40	74.4	74.4	74.4	74	65.6	1	3	248	0.00	29.768 
01:45	74.6	74.6	74.6	74	65.7	1	3	270	0.00	29.770 
01:50	74.6	74.6	74.6	74	65.7	0	4	270	0.00	29.770 
01:55	74.7	74.7	74.7	74	65.8	1	3	248	0.00	29.770 
02:00	74.9	74.9	74.9	74	66.0	1	4	270	0.00	29.769 
02:05	74.9	74.9	74.9	74	66.0	1	5	248	0.00	29.769 
02:10	75.1	75.1	76.4	74	66.2	1	5	292	0.00	29.769 
02:15	74.9	74.9	74.9	74	66.0	1	3	68	0.00	29.760 
02:20	74.9	74.9	74.9	75	66.4	1	3	225	0.00	29.760 
02:25	74.9	74.9	74.9	75	66.4	1	3	248	0.00	29.760 
02:30	74.9	74.9	74.9	75	66.4	1	4	248	0.00	29.753 
02:35	74.7	74.7	74.7	76	66.6	1	2	248	0.00	29.753 
02:40	74.4	74.4	74.4	77	66.7	0	3	248	0.00	29.753 
02:45	74.4	74.4	74.4	77	66.7	1	3	248	0.00	29.744 
02:50	74.2	74.2	74.2	78	66.9	0	2	248	0.00	29.744 
02:55	74.2	74.2	74.2	78	66.9	0	3	248	0.00	29.744 
03:00	74.2	74.2	74.2	78	66.9	1	4	270	0.00	29.743 
03:05	74.2	74.2	74.2	78	66.9	0	3	270	0.00	29.743 
03:10	74.2	74.2	74.2	78	66.9	1	3	270	0.00	29.743 
03:15	74.2	74.2	74.2	78	66.9	1	4	270	0.00	29.723 
03:20	74.2	74.2	74.2	78	66.9	1	5	270	0.00	29.723 
03:25	74.2	74.2	74.2	77	66.5	1	4	315	0.00	29.723 
03:30	74.2	74.2	74.2	76	66.1	2	5	270	0.00	29.722 
03:35	74.4	74.4	74.4	75	65.9	2	5	270	0.00	29.722 
03:40	74.4	74.4	74.4	75	65.9	1	3	270	0.00	29.722 
03:45	74.4	74.4	74.4	74	65.6	2	5	270	0.00	29.727 
03:50	74.4	74.4	74.4	74	65.6	2	5	270	0.00	29.727 
03:55	74.2	74.2	74.2	74	65.4	2	5	248	0.00	29.727 
04:00	74.2	74.2	74.2	74	65.4	2	5	270	0.00	29.725 
04:05	74.0	74.0	74.0	74	65.2	2	5	292	0.00	29.725 
04:10	73.9	73.9	73.9	75	65.5	1	4	270	0.00	29.725 
04:15	73.7	73.7	73.7	76	65.6	1	3	248	0.00	29.720 
04:20	73.5	73.5	73.5	77	65.8	1	5	248	0.00	29.720 
04:25	73.3	73.3	73.3	78	66.0	1	5	270	0.00	29.720 
04:30	73.2	73.2	73.2	79	66.3	1	4	270	0.00	29.722 
04:35	73.0	73.0	73.0	80	66.5	2	6	270	0.00	29.722 
04:40	72.8	72.8	72.8	81	66.6	1	4	270	0.00	29.722 
04:45	72.5	72.5	72.5	81	66.3	1	5	270	0.00	29.717 
04:50	72.5	72.5	72.5	81	66.3	0	2	270	0.00	29.717 
04:55	72.3	72.3	72.3	82	66.5	1	3	248	0.00	29.717 
05:00	72.1	72.1	72.1	82	66.3	1	4	292	0.00	29.718 
05:05	72.1	72.1	72.1	82	66.3	1	2	292	0.00	29.718 
05:10	72.0	72.0	72.0	83	66.5	1	4	292	0.00	29.718 
05:15	71.8	71.8	71.8	83	66.3	1	4	270	0.00	29.724 
05:20	71.5	71.5	71.5	82	65.7	2	5	270	0.00	29.724 
05:25	71.3	71.3	71.3	80	64.8	2	8	292	0.00	29.724 
05:30	71.3	71.3	71.3	79	64.4	1	5	270	0.00	29.731 
05:35	71.3	71.3	71.3	80	64.8	2	4	270	0.00	29.731 
05:40	70.9	70.9	70.9	79	64.1	2	5	248	0.00	29.731 
05:45	70.8	70.8	70.8	78	63.6	2	5	270	0.00	29.732 
05:50	70.6	70.6	70.6	78	63.4	2	4	270	0.00	29.732 
05:55	70.4	70.4	70.4	79	63.6	2	6	270	0.00	29.732 
06:00	70.3	70.3	70.3	79	63.5	1	5	270	0.00	29.737 
06:05	70.1	70.1	70.1	79	63.3	2	5	270	0.00	29.737 
06:10	69.9	69.9	69.9	79	63.1	1	3	270	0.00	29.737 
06:15	69.9	69.9	69.9	79	63.1	1	3	270	0.00	29.740 
06:20	69.8	69.8	69.8	80	63.3	1	4	270	0.00	29.740 
06:25	69.8	69.8	69.8	80	63.3	1	6	270	0.00	29.740 
06:30	69.6	69.6	69.6	80	63.1	1	5	270	0.00	29.741 
06:35	69.4	69.4	69.4	81	63.3	1	4	270	0.00	29.741 
06:40	69.3	69.3	69.3	81	63.2	1	5	270	0.00	29.741 
06:45	69.1	69.1	69.1	81	63.0	0	2	270	0.00	29.743 
06:50	69.1	69.1	69.1	82	63.4	1	4	270	0.00	29.743 
06:55	68.9	68.9	68.9	82	63.2	1	4	270	0.00	29.743 
07:00	68.8	68.8	68.8	82	63.1	1	3	270	0.00	29.750 
07:05	68.8	68.8	68.8	82	63.1	1	3	270	0.00	29.750 
07:10	68.6	68.6	68.6	83	63.2	1	3	270	0.00	29.750 
07:15	68.4	68.4	68.4	84	63.4	0	3	270	0.00	29.753 
07:20	68.1	68.1	68.1	85	63.4	1	5	270	0.00	29.753 
07:25	67.8	67.8	67.8	86	63.5	1	3	270	0.00	29.753 
07:30	67.4	67.4	67.4	87	63.4	1	3	270	0.00	29.763 
07:35	67.3	67.3	67.3	87	63.3	2	5	270	0.00	29.763 
07:40	67.3	67.3	67.3	87	63.3	1	3	270	0.00	29.763 
07:45	67.1	67.1	67.1	87	63.1	2	4	292	0.00	29.769 
07:50	67.1	67.1	67.1	87	63.1	2	5	270	0.00	29.769 
07:55	66.9	66.9	66.9	86	62.6	2	6	270	0.00	29.769 
08:00	66.9	66.9	66.9	86	62.6	3	5	270	0.00	29.767 
08:05	66.9	66.9	66.9	86	62.6	2	5	270	0.00	29.767 
08:10	66.9	66.9	66.9	86	62.6	1	3	315	0.00	29.767 
08:15	66.8	66.8	66.8	86	62.5	1	3	315	0.00	29.770 
08:20	66.8	66.8	66.8	85	62.1	1	4	315	0.00	29.770 
08:25	66.8	66.8	66.8	84	61.8	3	5	270	0.00	29.770 
08:30	66.8	66.8	66.8	84	61.8	2	5	270	0.00	29.775 
08:35	66.8	66.8	66.8	84	61.8	1	4	270	0.00	29.775 
08:40	66.8	66.8	66.8	84	61.8	2	4	270	0.00	29.775 
08:45	66.8	66.8	66.8	84	61.8	2	5	270	0.00	29.776 
08:50	66.9	66.9	66.9	84	61.9	1	3	315	0.00	29.776 
08:55	66.8	66.8	66.8	83	61.5	2	4	315	0.00	29.776 
09:00	66.8	66.8	66.8	83	61.5	2	6	292	0.00	29.769 
09:05	66.8	66.8	66.8	83	61.5	3	6	270	0.00	29.769 
09:10	67.1	67.1	67.1	82	61.4	2	6	270	0.00	29.769 
09:15	67.3	67.3	67.3	81	61.3	3	6	270	0.00	29.775 
09:20	67.3	67.3	67.3	79	60.6	3	6	270	0.00	29.775 
09:25	67.1	67.1	67.1	76	59.3	3	7	270	0.00	29.775 
09:30	67.3	67.3	67.3	76	59.5	3	7	270	0.00	29.778 
09:35	67.3	67.3	67.3	75	59.1	3	6	270	0.00	29.778 
09:40	66.9	66.9	66.9	74	58.3	3	5	270	0.00	29.778 
09:45	67.3	67.3	67.3	76	59.5	2	5	270	0.00	29.772 
09:50	67.6	67.6	67.6	74	59.0	3	6	270	0.00	29.772 
09:55	67.9	67.9	67.9	73	58.9	3	5	270	0.00	29.772 
10:00	68.3	68.3	68.3	72	58.9	2	6	270	0.00	29.767 
10:05	68.8	68.8	68.8	72	59.4	2	5	292	0.00	29.767 
10:10	69.1	69.1	69.1	69	58.5	2	5	270	0.00	29.767 
10:15	69.3	69.3	69.3	67	57.9	2	5	270	0.00	29.771 
10:20	69.3	69.3	69.3	67	57.9	2	4	292	0.00	29.771 
10:25	69.6	69.6	69.6	69	59.0	2	4	248	0.00	29.771 
10:30	70.1	70.1	70.1	66	58.2	2	6	270	0.00	29.772 
10:35	70.3	70.3	70.3	65	58.0	2	6	270	0.00	29.772 
10:40	70.4	70.4	70.4	62	56.7	3	7	270	0.00	29.772 
10:45	70.4	70.4	70.4	62	56.7	3	6	270	0.00	29.772 
10:50	70.9	70.9	70.9	61	56.8	3	5	270	0.00	29.772 
10:55	70.9	70.9	70.9	58	55.4	4	7	270	0.00	29.772 
11:00	70.9	70.9	70.9	58	55.4	3	5	270	0.00	29.779 
11:05	71.3	71.3	71.3	58	55.7	3	7	270	0.00	29.779 
11:10	71.3	71.3	71.3	59	56.2	2	7	270	0.00	29.779 
11:15	71.3	71.3	71.3	58	55.7	3	6	270	0.00	29.774 
11:20	71.8	71.8	71.8	55	54.7	2	7	270	0.00	29.774 
11:25	72.0	72.0	72.0	54	54.4	4	9	270	0.00	29.774 
11:30	72.1	72.1	72.1	52	53.5	3	7	270	0.00	29.773 
11:35	72.3	72.3	72.3	55	55.2	3	6	270	0.00	29.773 
11:40	72.7	72.7	72.7	54	55.1	3	5	270	0.00	29.773 
11:45	72.8	72.8	72.8	52	54.1	4	8	270	0.00	29.767 
11:50	72.1	72.1	72.1	54	54.5	4	7	270	0.00	29.767 
11:55	72.0	72.0	72.0	54	54.4	3	7	270	0.00	29.767 
12:00	72.3	72.3	72.3	54	54.7	3	10	270	0.00	29.766 
12:05	72.3	72.3	72.3	53	54.2	4	7	248	0.00	29.766 
12:10	72.5	72.5	72.5	52	53.9	3	7	270	0.00	29.766 
12:15	72.7	72.7	72.7	50	53.0	4	9	270	0.00	29.766 
12:20	72.8	72.8	72.8	50	53.1	3	6	270	0.00	29.766 
12:25	72.8	72.8	72.8	50	53.1	5	11	270	0.00	29.766 
12:30	72.8	72.8	72.8	51	53.6	2	5	270	0.00	29.765 
12:35	73.0	73.0	73.0	50	53.2	4	7	270	0.00	29.765 
12:40	73.5	73.5	73.5	47	52.0	4	10	270	0.00	29.765 
12:45	73.3	73.3	73.3	46	51.3	5	11	248	0.00	29.762 
12:50	73.2	73.2	73.2	46	51.2	4	10	270	0.00	29.762 
12:55	73.2	73.2	73.2	47	51.7	4	7	270	0.00	29.762 
13:00	73.5	73.5	73.5	46	51.4	4	7	270	0.00	29.760 
13:05	74.0	74.0	74.0	45	51.3	3	6	270	0.00	29.760 
13:10	74.0	74.0	74.0	46	51.9	4	9	270	0.00	29.760 
13:15	74.0	74.0	74.0	47	52.5	3	9	270	0.00	29.750 
13:20	74.0	74.0	74.0	47	52.5	3	5	270	0.00	29.750 
13:25	74.0	74.0	74.0	46	51.9	4	6	270	0.00	29.750 
13:30	74.4	74.4	74.4	45	51.7	3	6	270	0.00	29.744 
13:35	73.9	73.9	73.9	46	51.8	5	10	270	0.00	29.744 
13:40	74.2	74.2	74.2	45	51.5	3	6	270	0.00	29.744 
13:45	74.4	74.4	74.4	45	51.7	4	10	270	0.00	29.745 
13:50	74.2	74.2	74.2	45	51.5	4	11	270	0.00	29.745 
13:55	74.2	74.2	74.2	43	50.2	4	12	270	0.00	29.745 
14:00	74.2	74.2	74.2	44	50.9	4	8	270	0.00	29.745 
14:05	74.4	74.4	74.4	44	51.0	4	10	270	0.00	29.745 
14:10	74.7	74.7	74.7	44	51.3	4	9	270	0.00	29.745 
14:15	75.1	75.1	77.6	43	51.1	4	7	270	0.00	29.743 
14:20	75.3	75.3	77.6	42	50.6	4	9	270	0.00	29.743 
14:25	75.3	75.3	77.6	40	49.3	4	11	270	0.00	29.743 
14:30	74.9	74.9	74.9	39	48.3	5	11	270	0.00	29.744 
14:35	74.2	74.2	74.2	40	48.3	4	7	270	0.00	29.744 
14:40	73.9	73.9	73.9	41	48.7	5	9	270	0.00	29.744 
14:45	74.4	74.4	74.4	41	49.1	5	11	270	0.00	29.745 
14:50	74.9	74.9	74.9	40	48.9	4	7	270	0.00	29.745 
14:55	74.7	74.7	74.7	39	48.1	5	12	270	0.00	29.745 
15:00	74.9	74.9	74.9	39	48.3	4	9	270	0.00	29.742 
15:05	75.1	75.1	77.5	39	48.4	4	9	270	0.00	29.742 
15:10	74.9	74.9	74.9	39	48.3	4	9	270	0.00	29.742 
15:15	75.1	75.1	77.5	39	48.4	3	9	248	0.00	29.734 
15:20	75.4	75.4	77.5	38	48.0	4	11	270	0.00	29.734 
15:25	75.3	75.3	77.5	37	47.2	5	11	270	0.00	29.734 
15:30	75.3	75.3	77.4	36	46.5	4	9	270	0.00	29.736 
15:35	75.6	75.6	77.4	35	46.0	4	7	270	0.00	29.736 
15:40	74.9	74.9	74.9	37	46.9	5	12	270	0.00	29.736 
15:45	74.4	74.4	74.4	35	44.9	6	12	270	0.00	29.737 
15:50	74.4	74.4	74.4	35	44.9	5	11	270	0.00	29.737 
15:55	74.6	74.6	74.6	35	45.1	5	9	270	0.00	29.737 
16:00	74.6	74.6	74.6	35	45.1	5	11	270	0.00	29.735 
16:05	74.6	74.6	74.6	35	45.1	5	11	270	0.00	29.735 
16:10	74.4	74.4	74.4	36	45.7	5	13	270	0.00	29.735 
16:15	73.9	73.9	73.9	37	46.0	5	11	270	0.00	29.735 
16:20	74.4	74.4	74.4	37	46.4	4	11	270	0.00	29.735 
16:25	74.2	74.2	74.2	37	46.2	5	14	270	0.00	29.735 
16:30	74.4	74.4	74.4	36	45.7	4	12	270	0.00	29.733 
16:35	74.4	74.4	74.4	37	46.4	5	12	270	0.00	29.733 
16:40	73.7	73.7	73.7	37	45.8	5	10	270	0.00	29.733 
16:45	73.3	73.3	73.3	38	46.1	4	6	270	0.00	29.735 
16:50	73.5	73.5	73.5	38	46.3	4	10	270	0.00	29.735 
16:55	73.7	73.7	73.7	38	46.5	5	9	270	0.00	29.735 
17:00	73.9	73.9	73.9	36	45.2	5	10	270	0.00	29.733 
17:05	73.5	73.5	73.5	37	45.6	5	16	270	0.00	29.733 
17:10	74.0	74.0	74.0	39	47.5	3	8	270	0.00	29.733 
17:15	74.4	74.4	74.4	36	45.7	4	10	270	0.00	29.740 
17:20	74.0	74.0	74.0	35	44.6	4	12	270	0.00	29.740 
17:25	74.2	74.2	74.2	36	45.5	3	6	270	0.00	29.740 
17:30	74.2	74.2	74.2	36	45.5	4	10	270	0.00	29.743 
17:35	73.7	73.7	73.7	36	45.1	4	10	270	0.00	29.743 
17:40	73.5	73.5	73.5	37	45.6	3	9	270	0.00	29.743 
17:45	73.7	73.7	73.7	35	44.3	5	10	270	0.00	29.736 
17:50	74.2	74.2	74.2	36	45.5	3	6	270	0.00	29.736 
17:55	74.4	74.4	74.4	34	44.2	3	9	270	0.00	29.736 
18:00	74.0	74.0	74.0	33	43.1	5	9	270	0.00	29.744 
18:05	73.5	73.5	73.5	35	44.2	5	12	270	0.00	29.744 
18:10	73.5	73.5	73.5	35	44.2	4	12	270	0.00	29.744 
18:15	73.0	73.0	73.0	36	44.5	5	10	270	0.00	29.749 
18:20	72.7	72.7	72.7	37	44.9	5	9	270	0.00	29.749 
18:25	72.1	72.1	72.1	38	45.1	3	6	270	0.00	29.749 
18:30	72.3	72.3	72.3	37	44.6	3	10	270	0.00	29.747 
18:35	72.3	72.3	72.3	37	44.6	4	7	270	0.00	29.747 
18:40	72.3	72.3	72.3	36	43.8	5	9	270	0.00	29.747 
18:45	72.7	72.7	72.7	36	44.2	4	7	270	0.00	29.750 
18:50	72.3	72.3	72.3	36	43.8	3	10	270	0.00	29.750 
18:55	72.3	72.3	72.3	37	44.6	3	7	248	0.00	29.750 
19:00	72.1	72.1	72.1	36	43.7	3	10	270	0.00	29.754 
19:05	72.0	72.0	72.0	36	43.6	4	9	270	0.00	29.754 
19:10	72.0	72.0	72.0	36	43.6	3	7	270	0.00	29.754 
19:15	72.0	72.0	72.0	37	44.3	3	9	270	0.00	29.754 
19:20	71.6	71.6	71.6	37	43.9	5	10	270	0.00	29.754 
19:25	71.5	71.5	71.5	38	44.5	4	9	270	0.00	29.754 
19:30	71.3	71.3	71.3	38	44.4	3	7	270	0.00	29.753 
19:35	70.9	70.9	70.9	40	45.4	3	6	270	0.00	29.753 
19:40	70.8	70.8	70.8	39	44.6	4	10	270	0.00	29.753 
19:45	70.6	70.6	70.6	39	44.4	4	9	270	0.00	29.755 
19:50	70.3	70.3	70.3	40	44.8	4	8	270	0.00	29.755 
19:55	69.9	69.9	69.9	41	45.1	3	8	270	0.00	29.755 
20:00	69.8	69.8	69.8	41	45.0	3	9	292	0.00	29.758 
20:05	69.4	69.4	69.4	42	45.3	2	5	270	0.00	29.758 
20:10	69.3	69.3	69.3	41	44.6	5	10	270	0.00	29.758 
20:15	69.1	69.1	69.1	42	45.0	4	9	270	0.00	29.761 
20:20	68.9	68.9	68.9	42	44.9	3	7	270	0.00	29.761 
20:25	68.8	68.8	68.8	43	45.4	4	6	270	0.00	29.761 
20:30	68.6	68.6	68.6	43	45.2	3	10	270	0.00	29.765 
20:35	68.4	68.4	68.4	43	45.0	4	8	270	0.00	29.765 
20:40	68.4	68.4	68.4	43	45.0	4	7	270	0.00	29.765 
20:45	68.3	68.3	68.3	44	45.5	3	9	270	0.00	29.770 
20:50	68.1	68.1	68.1	44	45.4	4	7	270	0.00	29.770 
20:55	68.1	68.1	68.1	44	45.4	3	7	270	0.00	29.770 
21:00	68.1	68.1	68.1	44	45.4	4	7	270	0.00	29.774 
21:05	68.1	68.1	68.1	45	45.9	3	7	270	0.00	29.774 
21:10	67.9	67.9	67.9	45	45.8	3	7	270	0.00	29.774 
21:15	67.8	67.8	67.8	45	45.7	3	7	270	0.00	29.775 
21:20	67.8	67.8	67.8	46	46.3	4	7	270	0.00	29.775 
21:25	67.8	67.8	67.8	46	46.3	3	6	270	0.00	29.775 
21:30	67.6	67.6	67.6	46	46.1	3	7	270	0.00	29.782 
21:35	67.4	67.4	67.4	46	45.9	3	5	292	0.00	29.782 
21:40	67.3	67.3	67.3	47	46.4	2	5	292	0.00	29.782 
21:45	67.1	67.1	67.1	48	46.7	3	6	270	0.00	29.786 
21:50	66.9	66.9	66.9	47	46.0	3	7	270	0.00	29.786 
21:55	66.8	66.8	66.8	48	46.5	3	7	270	0.00	29.786 
22:00	66.6	66.6	66.6	48	46.3	3	6	292	0.00	29.784 
22:05	66.3	66.3	66.3	48	46.0	2	7	270	0.00	29.784 
22:10	66.1	66.1	66.1	49	46.4	3	6	270	0.00	29.784 
22:15	65.8	65.8	65.8	49	46.1	5	11	292	0.00	29.786 
22:20	65.6	65.6	65.6	49	45.9	4	10	270	0.00	29.786 
22:25	65.6	65.6	65.6	50	46.5	5	9	270	0.00	29.786 
22:30	65.5	65.5	65.5	50	46.4	5	9	270	0.00	29.792 
22:35	65.3	65.3	65.3	50	46.2	4	7	270	0.00	29.792 
22:40	65.0	65.0	65.0	51	46.4	4	7	292	0.00	29.792 
22:45	64.7	64.7	64.7	52	46.7	4	14	270	0.00	29.797 
22:50	64.5	64.5	64.5	52	46.5	5	11	270	0.00	29.797 
22:55	64.3	64.3	64.3	53	46.8	4	10	270	0.00	29.797 
23:00	64.3	64.3	64.3	53	46.8	3	7	270	0.00	29.800 
23:05	64.2	64.2	64.2	54	47.2	3	9	270	0.00	29.800 
23:10	64.0	64.0	64.0	54	47.0	4	8	270	0.00	29.800 
23:15	64.0	64.0	64.0	55	47.5	2	6	315	0.00	29.802 
23:20	63.9	63.9	63.9	55	47.4	4	7	270	0.00	29.802 
23:25	63.7	63.7	63.7	56	47.7	2	6	270	0.00	29.802 
23:30	63.7	63.7	63.7	56	47.7	3	6	270	0.00	29.803 
23:35	63.5	63.5	63.5	56	47.5	3	8	270	0.00	29.803 
23:40	63.5	63.5	63.5	57	48.0	3	6	270	0.00	29.803 
23:45	63.4	63.4	63.4	58	48.4	3	6	270	0.00	29.806 
23:50	63.2	63.2	63.2	58	48.2	3	6	292	0.00	29.806 
23:55	63.2	63.2	63.2	58	48.2	3	6	270	0.00	29.806 

CoCoRaHS
IN-AL-39
A2 Web Hosting
Creative Commons License
GoDaddy
search engine by freefind advanced

loaded 2018-11-12 19:15:16 • last modified 2010-11-18 10:43:29
Privacy PolicyDisclaimer
• wx.awcolley.com is powered by PmWiki v.2002016 •
• all content (unless otherwise noted) © 2018 A W Colley